EDT,Max TemperatureF,Mean TemperatureF,Min TemperatureF,Max Dew PointF,MeanDew PointF,Min DewpointF,Max Humidity, Mean Humidity, Min Humidity, Max Sea Level PressureIn, Mean Sea Level PressureIn, Min Sea Level PressureIn, Max VisibilityMiles, Mean VisibilityMiles, Min VisibilityMiles, Max Wind SpeedMPH, Mean Wind SpeedMPH, Max Gust SpeedMPH,PrecipitationIn, CloudCover, Events, WindDirDegrees
2012-9-1,91,81,70,73,68,64,100,76,52,30.10,30.05,30.01,10,9,2,16,6,22,0.13,2,Rain,265
2012-9-2,78,73,68,73,71,67,97,88,79,30.07,30.03,29.98,10,7,2,7,1,9,0.27,6,Rain,52
2012-9-3,84,77,70,72,70,68,100,82,63,30.06,30.02,29.98,10,8,2,13,4,17,T,6,,141
2012-9-4,87,79,71,72,71,69,93,75,57,30.04,29.93,29.84,10,10,10,15,5,22,0.01,4,,177
2012-9-5,90,82,74,72,69,64,87,66,44,29.86,29.82,29.79,10,10,10,10,4,21,T,4,,235
2012-9-6,87,79,70,71,68,66,90,74,57,29.94,29.89,29.85,10,10,10,10,3,15,T,3,,49
2012-9-7,92,79,65,69,66,61,100,69,38,29.96,29.90,29.81,10,9,2,20,4,32,0.00,1,,193
2012-9-8,86,72,58,69,63,55,100,78,55,29.86,29.73,29.64,10,8,0,39,6,52,0.68,3,Fog-Rain-Thunderstorm,254
2012-9-9,77,64,51,56,50,44,96,65,33,30.00,29.91,29.86,10,10,3,21,6,29,0.00,1,,300
2012-9-10,74,62,49,50,47,43,83,58,33,30.19,30.10,30.01,10,10,10,20,6,24,0.00,1,,332
2012-9-11,76,60,44,49,45,39,93,60,27,30.34,30.28,30.20,10,10,5,10,2,18,0.00,0,,328
2012-9-12,81,64,46,54,50,44,93,64,35,30.38,30.33,30.30,10,10,9,12,2,28,0.00,0,,166
2012-9-13,82,67,51,56,52,49,93,63,33,30.39,30.32,30.27,10,10,6,12,2,40,0.00,0,,149
2012-9-14,84,67,50,59,54,48,96,67,37,30.28,30.20,30.11,10,10,8,16,3,23,0.00,0,,227
2012-9-15,75,64,52,58,49,45,77,56,35,30.27,30.20,30.15,10,10,2,17,7,23,0.00,2,,330
2012-9-16,73,60,47,51,48,45,93,67,40,30.21,30.15,30.09,10,9,2,8,2,12,0.00,0,,22
2012-9-17,76,61,45,63,50,43,100,75,50,30.13,30.08,29.96,10,6,0,15,4,25,0.06,3,Fog-Rain,143
2012-9-18,71,66,61,68,65,51,100,86,72,29.93,29.72,29.60,10,5,0,21,7,29,2.07,8,Fog-Rain,188
2012-9-19,68,57,46,49,44,36,86,59,32,30.18,30.08,29.90,10,10,10,15,6,21,0.00,2,,326
2012-9-20,73,58,43,53,48,41,96,70,44,30.20,30.13,30.06,10,10,8,13,3,21,0.00,2,,156
2012-9-21,80,65,50,61,55,49,96,72,48,30.07,30.01,29.92,10,9,6,12,3,16,0.00,1,,154
2012-9-22,84,71,58,60,55,45,97,67,37,29.99,29.86,29.79,10,9,2,25,9,31,0.00,3,,239
2012-9-23,67,56,45,43,40,36,82,58,34,30.18,30.12,30.01,10,10,10,18,4,24,0.00,4,,309
2012-9-24,67,56,45,46,40,33,93,61,29,30.26,30.18,30.13,10,10,10,14,3,20,0.00,2,,255
2012-9-25,74,57,39,50,44,37,96,63,29,30.20,30.14,30.05,10,10,9,12,4,16,0.00,1,,185
2012-9-26,80,69,57,61,57,51,93,69,45,30.12,30.09,30.06,10,10,10,18,5,23,0.02,3,Rain,210
2012-9-27,77,70,62,64,62,58,100,80,60,30.18,30.12,30.08,10,7,1,16,3,23,0.39,4,Rain,2
2012-9-28,73,63,53,64,58,47,100,72,44,30.10,30.05,30.01,10,5,0,14,5,17,0.04,3,Fog-Rain,283
2012-9-29,67,58,48,49,46,43,93,69,44,30.05,30.00,29.94,10,10,10,14,4,18,0.01,3,,312
2012-9-30,69,58,47,51,48,45,100,74,48,29.92,29.90,29.83,10,8,2,17,3,24,0.13,3,Rain,215